Hovedside
METAR-TAF:

METAR-TAF

Lufthavner :

Ängelholm-Helsingborg lufthavn

Helsingborg, Sverige

breddegrad: 56-17-46N, lengdegrad: 012-50-50E, høyde over havet: 21 m

Gjeldene værobservasjon

Denne rapporten ble laget for 35 minutter siden, klokken 04:20 UTC
Vind 3 kt fra Sørøst
Temperatur 8°C
Luftfuktighet 93%
Trykk 1016 hPa
Sikt 10 km eller mer
ingen skyer under 1500 m og ingen bygeskyer

METAR: ESTA 160420Z 13003KT CAVOK 08/07 Q1016

Tid: 06:55 (04:55 UTC)

Varsel

Denne rapporten ble laget for 28 minutter siden, klokken 04:27 UTC
Varsel gyldig fra 16. klokken 05 UTC til 16. klokken 12 UTC
Vind 2 kt fra skiftende retning
Sikt 10 km eller mer
ingen skyer under 1500 m og ingen bygeskyer
Midlertidig
fra 16. klokken 05 UTC til 16. klokken 07 UTC
Sikt: 2000 m
dis

TAF: ESTA 160427Z 1605/1612 VRB02KT CAVOK TEMPO 1605/1607 2000 BR

Værobservasjoner og værvarsel for over 4000 flyplasser (METAR- og TAF-rapporter).

Tilgjengelige stasjoner er representert av de røde og gule prikkene på kartet.

Hold musepekeren over prikken for å se navnet på stasjonen.

Klikk så for å se værobservasjoner og -varsler.

For å forandre kartet kan du klikke på den grønne knappen med svart kryss for å zoome inn, på den grønne knappen med strek for å zoome ut, eller på de grønne pilene for å se tilstøtende kart.


METAR-TAF: